Main page
Satellite images 15-day forecastsClimateMarine weather Cyclones Lightning AirportsFAQ Newsletter About
Weather : Europe Africa North America South America Asia Australia-Oceania Others
Languages Contact

Pontianak, Indonesia

latitude: 00-09S, longitude: 109-24E, elevation: 3 m


METAR: WIOO 182100Z 00000KT 200 FU SCT012 24/23 Q1010
short-TAF: out of date (62698 hours)
long-TAF: out of date (4243 hours)

Time: 08:45 (01:45 UTC)

Current weather observation

The report was made 4 hours and 44 minutes ago, at 21:00 UTC  
Wind calm
Temperature 24°C
Humidity 94%
Pressure 1010 hPa
Visibility
Scattered clouds at a height of 1200 ft
smoke

Change units
The information on this site is subject to a disclaimer
Weather : Europe Africa North America South America Asia Australia-Oceania Others
Satellite images 15-day forecastsClimateMarine weather Cyclones Lightning AirportsFAQ Languages Contact Newsletter About